createdAt,value
2017-09-01T00:03:04.958Z,1014.45
2017-09-01T00:08:01.569Z,1014.56
2017-09-01T00:12:57.718Z,1014.49
2017-09-01T00:17:53.646Z,1014.51
2017-09-01T00:22:50.649Z,1014.50
2017-09-01T00:27:46.395Z,1014.48
2017-09-01T00:32:43.275Z,1014.46
2017-09-01T00:37:39.009Z,1014.43
2017-09-01T00:42:34.589Z,1014.40
2017-09-01T00:47:30.432Z,1014.44
2017-09-01T00:52:26.327Z,1014.44
2017-09-01T00:57:22.173Z,1014.26
2017-09-01T01:02:17.912Z,1014.34
2017-09-01T01:07:13.763Z,1014.41
2017-09-01T01:12:10.345Z,1014.41
2017-09-01T01:17:07.550Z,1014.33
2017-09-01T01:22:02.885Z,1014.42
2017-09-01T01:26:58.693Z,1014.35
2017-09-01T01:31:55.797Z,1014.42
2017-09-01T01:36:53.215Z,1014.36
2017-09-01T01:41:49.796Z,1014.43
2017-09-01T01:46:45.274Z,1014.43
2017-09-01T01:51:40.943Z,1014.44
2017-09-01T01:56:36.759Z,1014.42
2017-09-01T02:01:33.284Z,1014.29
2017-09-01T02:06:29.088Z,1014.25
2017-09-01T02:11:24.819Z,1014.22
2017-09-01T02:16:21.072Z,1014.18
2017-09-01T02:21:16.851Z,1014.13
2017-09-01T02:26:13.555Z,1014.20
2017-09-01T02:31:09.274Z,1014.29
2017-09-01T02:36:04.899Z,1014.19
2017-09-01T02:41:00.703Z,1014.21
2017-09-01T02:45:56.485Z,1014.22
2017-09-01T02:50:53.037Z,1014.15
2017-09-01T02:55:48.452Z,1014.16
2017-09-01T03:00:44.988Z,1014.07
2017-09-01T03:05:40.935Z,1014.00
2017-09-01T03:10:36.755Z,1013.95
2017-09-01T03:15:32.494Z,1013.99
2017-09-01T03:20:29.281Z,1013.99
2017-09-01T03:25:25.691Z,1014.02
2017-09-01T03:30:20.870Z,1014.05
2017-09-01T03:35:17.400Z,1013.97
2017-09-01T03:40:13.067Z,1014.03
2017-09-01T03:45:09.874Z,1013.97
2017-09-01T03:50:05.468Z,1014.00
2017-09-01T03:55:01.734Z,1013.95
2017-09-01T03:59:57.572Z,1014.01
2017-09-01T04:04:54.491Z,1013.96
2017-09-01T04:09:50.061Z,1014.09
2017-09-01T04:14:47.071Z,1014.07
2017-09-01T04:19:42.659Z,1014.03
2017-09-01T04:24:38.470Z,1014.12
2017-09-01T04:29:34.373Z,1014.06
2017-09-01T04:34:30.983Z,1014.04
2017-09-01T04:39:26.525Z,1014.10
2017-09-01T04:44:22.478Z,1014.06
2017-09-01T04:49:19.350Z,1014.12
2017-09-01T04:54:14.871Z,1014.30
2017-09-01T04:59:10.715Z,1014.28
2017-09-01T05:04:07.578Z,1014.30
2017-09-01T05:09:03.351Z,1014.31
2017-09-01T05:13:59.276Z,1014.36
2017-09-01T05:18:55.417Z,1014.35
2017-09-01T05:23:51.634Z,1014.36
2017-09-01T05:28:48.640Z,1014.31
2017-09-01T05:33:44.797Z,1014.40
2017-09-01T05:38:41.132Z,1014.41
2017-09-01T05:43:37.691Z,1014.52
2017-09-01T05:48:33.093Z,1014.58
2017-09-01T05:53:29.680Z,1014.72
2017-09-01T05:58:25.485Z,1014.60
2017-09-01T06:03:22.581Z,1014.65
2017-09-01T06:08:18.539Z,1014.63
2017-09-01T06:13:15.463Z,1014.71
2017-09-01T06:18:10.887Z,1014.77
2017-09-01T06:23:06.660Z,1014.80
2017-09-01T06:28:03.617Z,1014.80
2017-09-01T06:32:59.795Z,1014.77
2017-09-01T06:37:57.901Z,1014.67
2017-09-01T06:42:55.041Z,1014.70
2017-09-01T06:47:51.079Z,1014.59
2017-09-01T06:52:46.843Z,1014.58
2017-09-01T06:57:43.174Z,1014.66
2017-09-01T07:02:39.557Z,1014.65
2017-09-01T07:07:35.580Z,1014.75
2017-09-01T07:12:31.763Z,1014.81
2017-09-01T07:17:28.668Z,1014.89
2017-09-01T07:22:23.891Z,1014.96
2017-09-01T07:27:20.569Z,1014.91
2017-09-01T07:32:15.917Z,1014.91
2017-09-01T07:37:11.675Z,1014.81
2017-09-01T07:42:08.657Z,1014.86
2017-09-01T07:47:05.775Z,1014.93
2017-09-01T07:52:01.657Z,1014.97
2017-09-01T07:56:57.701Z,1015.08
2017-09-01T08:01:54.980Z,1015.02
2017-09-01T08:06:50.688Z,1014.95
2017-09-01T08:11:47.437Z,1014.91
2017-09-01T08:16:43.727Z,1014.95
2017-09-01T08:21:40.583Z,1014.95
2017-09-01T08:26:36.272Z,1014.93
2017-09-01T08:31:33.273Z,1014.95
2017-09-01T08:36:28.933Z,1014.83
2017-09-01T08:41:25.045Z,1014.65
2017-09-01T08:46:21.027Z,1014.62
2017-09-01T08:51:16.919Z,1014.70
2017-09-01T08:56:13.899Z,1014.69
2017-09-01T09:01:10.601Z,1014.66
2017-09-01T09:06:06.354Z,1014.77
2017-09-01T09:11:02.302Z,1014.80
2017-09-01T09:15:58.176Z,1014.84
2017-09-01T09:20:54.997Z,1014.86
2017-09-01T09:25:50.377Z,1014.95
2017-09-01T09:30:46.450Z,1014.87
2017-09-01T09:35:42.408Z,1014.82
2017-09-01T09:40:38.260Z,1014.81
2017-09-01T09:45:34.584Z,1014.86
2017-09-01T09:50:31.539Z,1014.83
2017-09-01T09:55:27.074Z,1014.79
2017-09-01T10:00:24.404Z,1014.74
2017-09-01T10:05:20.688Z,1014.65
2017-09-01T10:10:16.965Z,1014.61
2017-09-01T10:15:13.032Z,1014.81
2017-09-01T10:20:10.248Z,1014.76
2017-09-01T10:25:07.079Z,1014.59
2017-09-01T10:30:02.293Z,1014.56
2017-09-01T10:34:58.495Z,1014.54
2017-09-01T10:39:54.501Z,1014.50
2017-09-01T10:44:50.365Z,1014.49
2017-09-01T10:49:46.244Z,1014.46
2017-09-01T10:54:42.214Z,1014.49
2017-09-01T10:59:39.274Z,1014.51
2017-09-01T11:04:35.129Z,1014.45
2017-09-01T11:09:30.980Z,1014.44
2017-09-01T11:14:26.694Z,1014.38
2017-09-01T11:19:23.775Z,1014.54
2017-09-01T11:24:22.101Z,1014.44
2017-09-01T11:29:20.032Z,1014.50
2017-09-01T11:34:17.566Z,1014.30
2017-09-01T11:39:14.706Z,1014.17
2017-09-01T11:44:11.993Z,1014.26
2017-09-01T11:49:10.002Z,1014.21
2017-09-01T11:54:05.679Z,1014.22
2017-09-01T11:59:01.520Z,1014.19
2017-09-01T12:03:56.795Z,1014.00
2017-09-01T12:08:50.748Z,1013.92
2017-09-01T12:13:45.733Z,1013.91
2017-09-01T12:18:40.843Z,1013.84
2017-09-01T12:23:36.115Z,1013.86
2017-09-01T12:28:31.793Z,1013.86
2017-09-01T12:33:28.447Z,1013.73
2017-09-01T12:38:24.681Z,1013.60
2017-09-01T12:43:20.034Z,1013.61
2017-09-01T12:48:16.596Z,1013.67
2017-09-01T12:53:11.575Z,1013.65
2017-09-01T12:58:07.287Z,1013.64
2017-09-01T13:03:03.197Z,1013.71
2017-09-01T13:07:58.880Z,1013.64
2017-09-01T13:12:55.871Z,1013.67
2017-09-01T13:17:51.538Z,1013.64
2017-09-01T13:22:47.428Z,1013.48
2017-09-01T13:27:43.566Z,1013.50
2017-09-01T13:32:40.804Z,1013.55
2017-09-01T13:37:37.575Z,1013.61
2017-09-01T13:42:33.267Z,1013.53
2017-09-01T13:47:29.142Z,1013.44
2017-09-01T13:52:25.014Z,1013.41
2017-09-01T13:57:21.891Z,1013.30
2017-09-01T14:02:17.395Z,1013.32
2017-09-01T14:07:14.196Z,1013.22
2017-09-01T14:12:09.639Z,1013.12
2017-09-01T14:17:06.261Z,1013.03
2017-09-01T14:22:01.578Z,1013.01
2017-09-01T14:26:57.350Z,1012.96
2017-09-01T14:31:53.344Z,1013.04
2017-09-01T14:36:49.122Z,1013.03
2017-09-01T14:41:45.367Z,1013.09
2017-09-01T14:46:41.196Z,1013.12
2017-09-01T14:51:37.085Z,1013.12
2017-09-01T14:56:33.680Z,1013.20
2017-09-01T15:01:29.685Z,1013.19
2017-09-01T15:06:26.748Z,1013.09
2017-09-01T15:11:22.411Z,1013.19
2017-09-01T15:16:18.052Z,1013.28
2017-09-01T15:21:14.051Z,1013.44
2017-09-01T15:26:09.820Z,1013.51
2017-09-01T15:31:06.630Z,1013.59
2017-09-01T15:36:02.142Z,1013.67
2017-09-01T15:40:57.616Z,1013.71
2017-09-01T15:45:53.981Z,1013.65
2017-09-01T15:50:49.394Z,1013.64
2017-09-01T15:55:45.203Z,1013.54
2017-09-01T16:00:41.506Z,1013.57
2017-09-01T16:05:38.278Z,1013.62
2017-09-01T16:10:33.445Z,1013.59
2017-09-01T16:15:29.381Z,1013.67
2017-09-01T16:20:24.778Z,1013.68
2017-09-01T16:25:20.739Z,1013.69
2017-09-01T16:30:16.694Z,1013.65
2017-09-01T16:35:13.677Z,1013.57
2017-09-01T16:40:09.664Z,1013.65
2017-09-01T16:45:06.308Z,1013.62
2017-09-01T16:50:02.602Z,1013.55
2017-09-01T16:54:59.027Z,1013.55
2017-09-01T16:59:55.459Z,1013.48
2017-09-01T17:04:51.978Z,1013.57
2017-09-01T17:09:48.166Z,1013.58
2017-09-01T17:14:43.771Z,1013.58
2017-09-01T17:19:39.709Z,1013.55
2017-09-01T17:24:36.383Z,1013.53
2017-09-01T17:29:34.112Z,1013.38
2017-09-01T17:34:29.681Z,1013.40
2017-09-01T17:39:26.266Z,1013.36
2017-09-01T17:44:22.019Z,1013.32
2017-09-01T17:49:17.948Z,1013.29
2017-09-01T17:54:13.719Z,1013.43
2017-09-01T17:59:10.477Z,1013.33
2017-09-01T18:04:06.278Z,1013.38
2017-09-01T18:09:03.094Z,1013.33
2017-09-01T18:13:58.823Z,1013.27
2017-09-01T18:18:54.682Z,1013.22
2017-09-01T18:23:50.706Z,1013.08
2017-09-01T18:28:46.570Z,1013.12
2017-09-01T18:33:42.486Z,1013.29
2017-09-01T18:38:39.364Z,1013.15
2017-09-01T18:43:35.667Z,1013.23
2017-09-01T18:48:31.555Z,1013.26
2017-09-01T18:53:28.333Z,1013.24
2017-09-01T18:58:23.598Z,1013.33
2017-09-01T19:03:19.467Z,1013.37
2017-09-01T19:08:15.322Z,1013.40
2017-09-01T19:13:11.670Z,1013.39
2017-09-01T19:18:08.552Z,1013.55
2017-09-01T19:23:04.153Z,1013.63
2017-09-01T19:28:00.721Z,1013.69
2017-09-01T19:32:56.398Z,1013.78
2017-09-01T19:37:52.270Z,1013.82
2017-09-01T19:42:49.112Z,1013.74
2017-09-01T19:47:46.763Z,1013.78
2017-09-01T19:52:42.328Z,1013.78
2017-09-01T19:57:38.226Z,1013.71
2017-09-01T20:02:34.040Z,1013.79
2017-09-01T20:07:30.136Z,1013.75
2017-09-01T20:12:26.266Z,1013.74
2017-09-01T20:17:22.342Z,1013.70
2017-09-01T20:22:19.177Z,1013.63
2017-09-01T20:27:15.987Z,1013.60
2017-09-01T20:32:12.245Z,1013.72
2017-09-01T20:37:07.957Z,1013.84
2017-09-01T20:42:06.413Z,1013.77
2017-09-01T20:47:01.908Z,1013.75
2017-09-01T20:51:59.675Z,1013.78
2017-09-01T20:56:56.221Z,1013.73
2017-09-01T21:01:51.988Z,1013.78
2017-09-01T21:06:49.622Z,1013.70
2017-09-01T21:11:46.590Z,1013.78
2017-09-01T21:16:42.175Z,1013.74
2017-09-01T21:21:38.042Z,1013.83
2017-09-01T21:26:34.193Z,1013.82
2017-09-01T21:31:31.229Z,1013.73
2017-09-01T21:36:26.903Z,1013.81
2017-09-01T21:41:22.811Z,1013.75
2017-09-01T21:46:19.777Z,1013.83
2017-09-01T21:51:15.376Z,1013.84
2017-09-01T21:56:12.268Z,1013.76
2017-09-01T22:01:08.538Z,1013.72
2017-09-01T22:06:04.413Z,1013.81
2017-09-01T22:11:01.200Z,1013.86
2017-09-01T22:15:56.494Z,1013.83
2017-09-01T22:20:52.366Z,1013.81
2017-09-01T22:25:49.252Z,1013.81
2017-09-01T22:30:44.807Z,1013.85
2017-09-01T22:35:40.614Z,1013.75
2017-09-01T22:40:36.266Z,1013.68
2017-09-01T22:45:33.105Z,1013.64
2017-09-01T22:50:28.669Z,1013.76
2017-09-01T22:55:24.541Z,1013.63
2017-09-01T23:00:20.328Z,1013.60
2017-09-01T23:05:17.212Z,1013.59
2017-09-01T23:10:12.408Z,1013.54
2017-09-01T23:15:08.351Z,1013.58
2017-09-01T23:20:04.304Z,1013.58
2017-09-01T23:25:00.294Z,1013.61
2017-09-01T23:29:56.238Z,1013.65
2017-09-01T23:34:52.056Z,1013.60
2017-09-01T23:39:47.549Z,1013.59
2017-09-01T23:44:43.385Z,1013.53
2017-09-01T23:49:40.630Z,1013.55
2017-09-01T23:54:35.882Z,1013.50
2017-09-01T23:59:32.266Z,1013.51
